Time;durP1;ratioP1;P1;durP2;ratioP2;P2;SDS_P1;SDS_P2;PMS_P1;PMS_P2;Temp;Humidity;BMP_temperature;BMP_pressure;BME280_temperature;BME280_humidity;BME280_pressure;Samples;Min_cycle;Max_cycle;Signal;HPM_P1;HPM_P2
2023/03/27 00:01:06;;;;;;;11.23;1.63;;;;;;;;;;5005147;28;20037;-74
2023/03/27 00:03:32;;;;;;;7.90;1.67;;;;;;;;;;4997931;28;20059;-74
2023/03/27 00:06:00;;;;;;;7.97;1.20;;;;;;;;;;5002174;28;20044;-75
2023/03/27 00:08:26;;;;;;;7.57;1.40;;;;;;;;;;5005340;28;20149;-74
2023/03/27 00:10:52;;;;;;;14.52;1.92;;;;;;;;;;5008668;28;20056;-75
2023/03/27 00:13:18;;;;;;;12.63;1.45;;;;;;;;;;5007705;28;20041;-74
2023/03/27 00:15:45;;;;;;;13.60;2.33;;;;;;;;;;5001919;28;20045;-74
2023/03/27 00:18:12;;;;;;;10.50;1.48;;;;;;;;;;4997392;28;20056;-75
2023/03/27 00:20:39;;;;;;;5.72;0.93;;;;;;;;;;5003291;28;20069;-74
2023/03/27 00:23:05;;;;;;;7.90;1.30;;;;;;;;;;5002028;28;20103;-74
2023/03/27 00:25:32;;;;;;;13.13;1.33;;;;;;;;;;5004864;28;20045;-74
2023/03/27 00:27:58;;;;;;;13.85;2.55;;;;;;;;;;5008959;28;20091;-74
2023/03/27 00:30:25;;;;;;;6.75;1.48;;;;;;;;;;4988512;28;21732;-74
2023/03/27 00:32:55;;;;;;;38.05;3.53;;;;;;;;;;5004677;28;20041;-74
2023/03/27 00:35:25;;;;;;;12.05;1.50;;;;;;;;;;5004063;28;20041;-75
2023/03/27 00:37:51;;;;;;;9.73;1.30;;;;;;;;;;4987804;28;20167;-75
2023/03/27 00:40:17;;;;;;;7.53;1.25;;;;;;;;;;5006389;28;20173;-75
2023/03/27 00:42:48;;;;;;;10.05;1.70;;;;;;;;;;5002436;28;20123;-74
2023/03/27 00:45:25;;;;;;;4.63;1.27;;;;;;;;;;4998352;28;20052;-74
2023/03/27 00:48:05;;;;;;;11.15;1.83;;;;;;;;;;5008990;28;20056;-74
2023/03/27 00:50:34;;;;;;;4.80;1.02;;;;;;;;;;5004220;28;20138;-74
2023/03/27 00:53:03;;;;;;;10.45;1.58;;;;;;;;;;5002240;28;20251;-74
2023/03/27 00:55:31;;;;;;;10.65;1.50;;;;;;;;;;4989895;28;20051;-74
2023/03/27 00:58:01;;;;;;;6.78;1.10;;;;;;;;;;5004858;28;20061;-74
2023/03/27 01:00:28;;;;;;;9.82;1.42;;;;;;;;;;5005276;28;20070;-74
2023/03/27 01:02:54;;;;;;;11.35;1.92;;;;;;;;;;5015374;28;20081;-74
2023/03/27 01:05:20;;;;;;;7.05;1.30;;;;;;;;;;5018032;28;20199;-75
2023/03/27 01:07:48;;;;;;;6.43;1.02;;;;;;;;;;5015074;28;20221;-74
2023/03/27 01:10:15;;;;;;;8.65;1.38;;;;;;;;;;5020994;28;20162;-74
2023/03/27 01:12:55;;;;;;;9.75;1.70;;;;;;;;;;5013928;28;20040;-74
2023/03/27 01:15:24;;;;;;;8.20;1.30;;;;;;;;;;5014476;28;20057;-74
2023/03/27 01:18:09;;;;;;;11.88;1.05;;;;;;;;;;5027199;28;20052;-74
2023/03/27 01:20:41;;;;;;;10.57;1.60;;;;;;;;;;5007058;28;20089;-74
2023/03/27 01:23:20;;;;;;;9.85;1.52;;;;;;;;;;4990589;28;20044;-74
2023/03/27 01:26:06;;;;;;;15.30;1.70;;;;;;;;;;5007137;28;20037;-74
2023/03/27 01:28:32;;;;;;;4.82;1.27;;;;;;;;;;5010385;28;20045;-74
2023/03/27 01:31:10;;;;;;;10.82;1.63;;;;;;;;;;5012975;28;20575;-74
2023/03/27 01:33:56;;;;;;;2.30;1.00;;;;;;;;;;5011162;28;20444;-74
2023/03/27 01:36:34;;;;;;;5.97;1.50;;;;;;;;;;5006394;28;20504;-74
2023/03/27 01:39:12;;;;;;;7.75;1.52;;;;;;;;;;5008903;28;20171;-74
2023/03/27 01:41:54;;;;;;;6.47;1.80;;;;;;;;;;5009764;28;20424;-74
2023/03/27 01:44:40;;;;;;;13.00;1.17;;;;;;;;;;5013048;28;20117;-74
2023/03/27 01:47:11;;;;;;;7.47;1.35;;;;;;;;;;5008310;28;20630;-74
2023/03/27 01:49:40;;;;;;;7.35;1.05;;;;;;;;;;5003735;28;20123;-74
2023/03/27 01:52:09;;;;;;;14.77;1.77;;;;;;;;;;5001500;28;20041;-75
2023/03/27 01:54:38;;;;;;;7.07;0.95;;;;;;;;;;5004520;28;20528;-74
2023/03/27 01:57:08;;;;;;;7.93;1.23;;;;;;;;;;4997171;28;21705;-74
2023/03/27 01:59:37;;;;;;;8.23;1.55;;;;;;;;;;5006064;28;20049;-74
2023/03/27 02:02:11;;;;;;;11.07;1.20;;;;;;;;;;5003664;28;20076;-74
2023/03/27 02:04:37;;;;;;;;;;;;;;;;;;5010253;28;20064;-74
2023/03/27 02:07:06;;;;;;;5.82;1.38;;;;;;;;;;4994609;28;19920;-74
2023/03/27 02:09:35;;;;;;;7.07;1.17;;;;;;;;;;5009501;28;20060;-74
2023/03/27 02:12:01;;;;;;;4.57;1.17;;;;;;;;;;5008656;28;21779;-75
2023/03/27 02:14:30;;;;;;;5.55;1.35;;;;;;;;;;5008043;28;20490;-74
2023/03/27 02:16:59;;;;;;;7.28;1.92;;;;;;;;;;5007349;28;20557;-74
2023/03/27 02:19:33;;;;;;;3.20;1.00;;;;;;;;;;5008048;28;20053;-75
2023/03/27 02:21:59;;;;;;;5.50;1.10;;;;;;;;;;5006204;28;20040;-74
2023/03/27 02:24:25;;;;;;;10.20;2.15;;;;;;;;;;4974951;28;20050;-74
2023/03/27 02:26:56;;;;;;;10.73;1.40;;;;;;;;;;5008129;28;20539;-74
2023/03/27 02:29:22;;;;;;;3.60;1.08;;;;;;;;;;5008071;28;20084;-75
2023/03/27 02:31:51;;;;;;;4.47;1.45;;;;;;;;;;5012139;28;20032;-74
2023/03/27 02:34:23;;;;;;;5.25;1.20;;;;;;;;;;5003225;28;20040;-74
2023/03/27 02:37:10;;;;;;;3.45;1.98;;;;;;;;;;4996678;28;20045;-75
2023/03/27 02:39:39;;;;;;;7.38;1.23;;;;;;;;;;4995564;28;20052;-74
2023/03/27 02:42:09;;;;;;;4.53;1.13;;;;;;;;;;4994649;28;20045;-74
2023/03/27 02:44:35;;;;;;;5.10;1.20;;;;;;;;;;4998853;28;20060;-74
2023/03/27 02:47:07;;;;;;;7.38;1.45;;;;;;;;;;5003461;28;20477;-74
2023/03/27 02:49:36;;;;;;;11.65;1.10;;;;;;;;;;4999053;28;20498;-74
2023/03/27 02:52:07;;;;;;;9.40;1.98;;;;;;;;;;4998498;28;20556;-75
2023/03/27 02:54:40;;;;;;;3.83;1.60;;;;;;;;;;4997624;28;20044;-75
2023/03/27 02:57:09;;;;;;;5.88;1.35;;;;;;;;;;4998310;28;20780;-75
2023/03/27 02:59:39;;;;;;;7.97;1.65;;;;;;;;;;5003233;28;20075;-75
2023/03/27 03:02:08;;;;;;;9.48;1.70;;;;;;;;;;5005480;28;20065;-75
2023/03/27 03:04:40;;;;;;;10.70;1.83;;;;;;;;;;5011068;28;20626;-75
2023/03/27 03:07:06;;;;;;;6.80;1.88;;;;;;;;;;4993935;28;20075;-74
2023/03/27 03:09:32;;;;;;;10.07;1.85;;;;;;;;;;5010961;28;20099;-74
2023/03/27 03:11:59;;;;;;;8.13;1.73;;;;;;;;;;5010222;28;20060;-75
2023/03/27 03:14:33;;;;;;;5.90;1.52;;;;;;;;;;5008994;28;20503;-75
2023/03/27 03:16:59;;;;;;;;;;;;;;;;;;5006330;28;20041;-75
2023/03/27 03:19:25;;;;;;;12.23;1.95;;;;;;;;;;5007819;28;19936;-75
2023/03/27 03:21:51;;;;;;;9.55;1.70;;;;;;;;;;5006494;28;20088;-76
2023/03/27 03:24:17;;;;;;;9.57;2.10;;;;;;;;;;5005738;28;20068;-75
2023/03/27 03:26:48;;;;;;;7.10;2.22;;;;;;;;;;5006981;28;20045;-74
2023/03/27 03:29:14;;;;;;;4.90;1.20;;;;;;;;;;5007677;28;20060;-74
2023/03/27 03:31:43;;;;;;;5.80;1.67;;;;;;;;;;5007834;28;20049;-74
2023/03/27 03:34:17;;;;;;;3.15;1.10;;;;;;;;;;5005583;28;20047;-74
2023/03/27 03:36:47;;;;;;;5.68;2.33;;;;;;;;;;5005577;28;21695;-74
2023/03/27 03:39:14;;;;;;;6.85;1.67;;;;;;;;;;5001725;28;20063;-76
2023/03/27 03:41:40;;;;;;;9.18;1.63;;;;;;;;;;5003365;28;20063;-77
2023/03/27 03:44:07;;;;;;;5.72;1.40;;;;;;;;;;5001617;28;20047;-77
2023/03/27 03:46:33;;;;;;;3.95;1.45;;;;;;;;;;5004978;28;20072;-77
2023/03/27 03:49:00;;;;;;;10.68;2.35;;;;;;;;;;5004766;28;20413;-77
2023/03/27 03:51:27;;;;;;;14.88;3.58;;;;;;;;;;5006468;28;20477;-77
2023/03/27 03:53:53;;;;;;;11.00;2.30;;;;;;;;;;5003316;28;20161;-77
2023/03/27 03:56:19;;;;;;;10.88;1.73;;;;;;;;;;5004719;28;20053;-75
2023/03/27 03:58:45;;;;;;;17.98;2.70;;;;;;;;;;4996806;28;20255;-75
2023/03/27 04:01:11;;;;;;;8.90;2.05;;;;;;;;;;5005025;28;20041;-74
2023/03/27 04:03:38;;;;;;;16.00;2.08;;;;;;;;;;4997497;28;20485;-74
2023/03/27 04:06:06;;;;;;;14.30;2.10;;;;;;;;;;5007335;28;20057;-74
2023/03/27 04:08:32;;;;;;;13.10;2.15;;;;;;;;;;5003737;28;20065;-74
2023/03/27 04:10:59;;;;;;;12.02;2.78;;;;;;;;;;5007670;28;20063;-75
2023/03/27 04:13:25;;;;;;;14.55;2.17;;;;;;;;;;5004682;28;20056;-76
2023/03/27 04:15:51;;;;;;;11.60;2.35;;;;;;;;;;5008987;28;20075;-76
2023/03/27 04:18:18;;;;;;;12.75;1.77;;;;;;;;;;5007351;28;20084;-75
2023/03/27 04:20:48;;;;;;;10.95;1.83;;;;;;;;;;5010725;28;20041;-77
2023/03/27 04:23:17;;;;;;;12.85;2.70;;;;;;;;;;5009125;28;20761;-76
2023/03/27 04:25:45;;;;;;;9.20;2.13;;;;;;;;;;4986416;28;20138;-76
2023/03/27 04:28:15;;;;;;;7.32;1.75;;;;;;;;;;5012864;28;20087;-76
2023/03/27 04:30:43;;;;;;;11.50;2.50;;;;;;;;;;5008911;28;20122;-76
2023/03/27 04:33:17;;;;;;;15.45;2.30;;;;;;;;;;5005244;28;20048;-76
2023/03/27 04:35:43;;;;;;;;;;;;;;;;;;4993553;28;20045;-75
2023/03/27 04:38:09;;;;;;;9.52;2.08;;;;;;;;;;5010457;28;19935;-76
2023/03/27 04:40:37;;;;;;;15.45;2.00;;;;;;;;;;5010430;28;20783;-76
2023/03/27 04:43:03;;;;;;;5.30;1.52;;;;;;;;;;5013635;28;20455;-76
2023/03/27 04:45:31;;;;;;;8.35;1.50;;;;;;;;;;5012553;28;20041;-76
2023/03/27 04:47:57;;;;;;;16.02;2.35;;;;;;;;;;5009241;28;20049;-76
2023/03/27 04:50:23;;;;;;;7.75;0.85;;;;;;;;;;5011611;28;20037;-76
2023/03/27 04:52:50;;;;;;;7.72;1.23;;;;;;;;;;5013361;28;20060;-74
2023/03/27 04:55:18;;;;;;;9.65;1.02;;;;;;;;;;5011224;28;20049;-74
2023/03/27 04:57:47;;;;;;;6.95;1.23;;;;;;;;;;5010772;28;20670;-74
2023/03/27 05:00:18;;;;;;;8.93;1.00;;;;;;;;;;5006327;28;20063;-74
2023/03/27 05:02:47;;;;;;;11.18;1.00;;;;;;;;;;5012419;28;20710;-74
2023/03/27 05:05:15;;;;;;;9.63;1.10;;;;;;;;;;5019074;28;20048;-75
2023/03/27 05:07:44;;;;;;;5.88;0.98;;;;;;;;;;5014660;28;20510;-74
2023/03/27 05:10:10;;;;;;;10.10;1.20;;;;;;;;;;5013982;28;20135;-74
2023/03/27 05:12:41;;;;;;;9.88;1.70;;;;;;;;;;5015797;28;20036;-74
2023/03/27 05:15:08;;;;;;;10.90;1.60;;;;;;;;;;5016442;28;20053;-74
2023/03/27 05:17:39;;;;;;;6.82;1.40;;;;;;;;;;5016719;28;20045;-74
2023/03/27 05:20:07;;;;;;;8.23;1.20;;;;;;;;;;5013493;28;20041;-74
2023/03/27 05:22:33;;;;;;;14.25;3.63;;;;;;;;;;5016552;28;20045;-73
2023/03/27 05:25:00;;;;;;;14.50;1.48;;;;;;;;;;5004004;28;20032;-73
2023/03/27 05:27:26;;;;;;;11.18;1.15;;;;;;;;;;5017071;28;20064;-74
2023/03/27 05:29:52;;;;;;;5.90;1.83;;;;;;;;;;5018073;28;20056;-74
2023/03/27 05:32:18;;;;;;;10.50;1.00;;;;;;;;;;5010494;28;20045;-75
2023/03/27 05:34:44;;;;;;;14.38;0.90;;;;;;;;;;5014016;28;20993;-74
2023/03/27 05:37:11;;;;;;;7.95;0.85;;;;;;;;;;5012115;28;20056;-75
2023/03/27 05:39:37;;;;;;;5.50;1.45;;;;;;;;;;5013494;28;20088;-75
2023/03/27 05:42:03;;;;;;;7.88;1.05;;;;;;;;;;5015073;28;20057;-76
2023/03/27 05:44:29;;;;;;;5.60;1.00;;;;;;;;;;5012340;28;20045;-75
2023/03/27 05:46:55;;;;;;;6.30;1.20;;;;;;;;;;5016495;28;20490;-75
2023/03/27 05:49:21;;;;;;;5.40;1.30;;;;;;;;;;5015694;28;20178;-75
2023/03/27 05:51:47;;;;;;;10.23;1.70;;;;;;;;;;5002877;28;20049;-75
2023/03/27 05:54:13;;;;;;;6.03;0.95;;;;;;;;;;5012231;28;20044;-75
2023/03/27 05:56:40;;;;;;;8.48;1.15;;;;;;;;;;5010238;28;20484;-75
2023/03/27 05:59:06;;;;;;;1.90;0.77;;;;;;;;;;5009767;28;20504;-75
2023/03/27 06:01:34;;;;;;;7.13;1.20;;;;;;;;;;5008829;28;20052;-75
2023/03/27 06:04:01;;;;;;;7.97;0.85;;;;;;;;;;5010475;28;20079;-75
2023/03/27 06:06:27;;;;;;;6.07;1.30;;;;;;;;;;5009358;28;20048;-75
2023/03/27 06:08:54;;;;;;;6.15;1.02;;;;;;;;;;5010459;28;20065;-75
2023/03/27 06:11:20;;;;;;;6.90;0.88;;;;;;;;;;5009632;28;20053;-75
2023/03/27 06:13:46;;;;;;;7.20;1.08;;;;;;;;;;5011050;28;20071;-75
2023/03/27 06:16:13;;;;;;;5.50;1.20;;;;;;;;;;5009164;28;20512;-75
2023/03/27 06:18:40;;;;;;;7.30;1.20;;;;;;;;;;5005833;28;20049;-76
2023/03/27 06:21:06;;;;;;;8.02;1.98;;;;;;;;;;5010409;28;20553;-76
2023/03/27 06:23:32;;;;;;;13.90;1.58;;;;;;;;;;5015518;28;20413;-75
2023/03/27 06:25:58;;;;;;;6.88;1.48;;;;;;;;;;5005797;28;20048;-75
2023/03/27 06:28:24;;;;;;;8.77;2.03;;;;;;;;;;5014116;28;20168;-75
2023/03/27 06:30:50;;;;;;;12.90;1.70;;;;;;;;;;5013844;28;20105;-75
2023/03/27 06:33:16;;;;;;;8.70;1.55;;;;;;;;;;5011318;28;20097;-75
2023/03/27 06:35:44;;;;;;;14.00;1.58;;;;;;;;;;5014700;28;20389;-75
2023/03/27 06:38:11;;;;;;;10.88;1.20;;;;;;;;;;5012090;28;20053;-75
2023/03/27 06:40:37;;;;;;;8.02;1.17;;;;;;;;;;5010108;28;20040;-75
2023/03/27 06:43:05;;;;;;;8.05;1.55;;;;;;;;;;5012169;28;20037;-74
2023/03/27 06:45:37;;;;;;;5.90;1.30;;;;;;;;;;5012343;28;20535;-74
2023/03/27 06:48:04;;;;;;;9.80;1.52;;;;;;;;;;5011743;28;20631;-74
2023/03/27 06:50:31;;;;;;;4.47;1.63;;;;;;;;;;5012859;28;20037;-74
2023/03/27 06:52:57;;;;;;;9.95;1.23;;;;;;;;;;5012652;28;20601;-73
2023/03/27 06:55:25;;;;;;;8.98;1.40;;;;;;;;;;5011591;28;20045;-73
2023/03/27 06:57:52;;;;;;;11.40;1.92;;;;;;;;;;5010600;28;20048;-72
2023/03/27 07:00:21;;;;;;;7.15;1.55;;;;;;;;;;5009710;28;20406;-72
2023/03/27 07:02:47;;;;;;;11.27;1.63;;;;;;;;;;5006586;28;20045;-72
2023/03/27 07:05:15;;;;;;;5.15;1.20;;;;;;;;;;5010472;28;20198;-73
2023/03/27 07:07:42;;;;;;;7.10;1.00;;;;;;;;;;5010885;28;20062;-73
2023/03/27 07:10:09;;;;;;;7.80;1.70;;;;;;;;;;5015098;28;20766;-73
2023/03/27 07:12:36;;;;;;;6.90;1.58;;;;;;;;;;5008639;28;20106;-73
2023/03/27 07:15:04;;;;;;;8.35;1.85;;;;;;;;;;5011437;28;20090;-73
2023/03/27 07:17:31;;;;;;;12.77;2.45;;;;;;;;;;5013153;28;20053;-73
2023/03/27 07:19:57;;;;;;;11.02;2.00;;;;;;;;;;5011762;28;20045;-72
2023/03/27 07:22:23;;;;;;;15.30;2.25;;;;;;;;;;5009124;28;20107;-72
2023/03/27 07:24:49;;;;;;;8.55;1.73;;;;;;;;;;5013255;28;20041;-72
2023/03/27 07:27:15;;;;;;;8.73;2.30;;;;;;;;;;5015794;28;20535;-73
2023/03/27 07:29:42;;;;;;;15.20;1.88;;;;;;;;;;5018162;28;20075;-72
2023/03/27 07:32:08;;;;;;;8.48;1.55;;;;;;;;;;5015785;28;20102;-72
2023/03/27 07:34:34;;;;;;;8.85;1.98;;;;;;;;;;5015720;28;20129;-72
2023/03/27 07:37:00;;;;;;;8.32;1.35;;;;;;;;;;5017275;28;20625;-72
2023/03/27 07:39:26;;;;;;;10.18;1.55;;;;;;;;;;5014215;28;20049;-72
2023/03/27 07:41:52;;;;;;;6.32;0.90;;;;;;;;;;5013271;28;20503;-73
2023/03/27 07:44:19;;;;;;;4.45;1.05;;;;;;;;;;5013330;28;20132;-72
2023/03/27 07:46:46;;;;;;;6.82;1.20;;;;;;;;;;5002416;28;20057;-72
2023/03/27 07:49:12;;;;;;;6.13;1.25;;;;;;;;;;5016604;28;20853;-72
2023/03/27 07:51:41;;;;;;;2.67;1.05;;;;;;;;;;5017994;28;20059;-72
2023/03/27 07:54:12;;;;;;;5.55;1.30;;;;;;;;;;5014860;28;21585;-72
2023/03/27 07:56:38;;;;;;;5.63;0.85;;;;;;;;;;5016584;28;20052;-72
2023/03/27 07:59:04;;;;;;;4.55;1.40;;;;;;;;;;5000468;28;20042;-72
2023/03/27 08:01:31;;;;;;;5.43;1.00;;;;;;;;;;5016722;28;20049;-73
2023/03/27 08:03:58;;;;;;;6.32;1.02;;;;;;;;;;5016594;28;20045;-72
2023/03/27 08:06:25;;;;;;;2.67;1.00;;;;;;;;;;5016339;28;20120;-74
2023/03/27 08:08:51;;;;;;;11.57;1.45;;;;;;;;;;4999467;28;20057;-72
2023/03/27 08:11:18;;;;;;;4.05;1.02;;;;;;;;;;5015600;28;20079;-72
2023/03/27 08:13:45;;;;;;;7.22;1.20;;;;;;;;;;5017768;28;20156;-73
2023/03/27 08:16:16;;;;;;;15.75;1.50;;;;;;;;;;5015305;28;20504;-73
2023/03/27 08:18:43;;;;;;;11.48;1.52;;;;;;;;;;5016664;28;20129;-73
2023/03/27 08:21:10;;;;;;;8.15;1.20;;;;;;;;;;5015138;28;20465;-72
2023/03/27 08:23:37;;;;;;;5.55;1.95;;;;;;;;;;5016854;28;20052;-72
2023/03/27 08:26:04;;;;;;;7.43;1.42;;;;;;;;;;5017589;28;20733;-72
2023/03/27 08:28:31;;;;;;;13.05;2.72;;;;;;;;;;5017615;28;20594;-72
2023/03/27 08:30:57;;;;;;;5.63;1.15;;;;;;;;;;5018217;28;20049;-72
2023/03/27 08:33:26;;;;;;;10.18;1.50;;;;;;;;;;5016440;28;20520;-72
2023/03/27 08:35:53;;;;;;;6.95;1.20;;;;;;;;;;5016873;28;20045;-72
2023/03/27 08:38:19;;;;;;;7.82;1.13;;;;;;;;;;5017082;28;20041;-72
2023/03/27 08:40:50;;;;;;;10.80;1.45;;;;;;;;;;5016012;28;20073;-72
2023/03/27 08:43:28;;;;;;;3.47;0.95;;;;;;;;;;5015522;28;20038;-72
2023/03/27 08:46:14;;;;;;;8.20;1.10;;;;;;;;;;5016928;28;20044;-73
2023/03/27 08:48:45;;;;;;;8.98;1.52;;;;;;;;;;5013801;28;20048;-72
2023/03/27 08:51:15;;;;;;;7.20;1.05;;;;;;;;;;5015836;28;20084;-73
2023/03/27 08:53:45;;;;;;;6.32;1.23;;;;;;;;;;5016347;28;20053;-72
2023/03/27 08:56:14;;;;;;;8.77;1.17;;;;;;;;;;5017422;28;20053;-73
2023/03/27 08:58:41;;;;;;;8.25;1.42;;;;;;;;;;5015569;28;20053;-72
2023/03/27 09:01:14;;;;;;;6.82;1.65;;;;;;;;;;5019159;28;20505;-72
2023/03/27 09:03:45;;;;;;;13.05;2.10;;;;;;;;;;5002395;28;20103;-72
2023/03/27 09:06:14;;;;;;;6.85;0.98;;;;;;;;;;5016259;28;20409;-73
2023/03/27 09:08:49;;;;;;;6.63;1.02;;;;;;;;;;5018825;28;20088;-73
2023/03/27 09:11:18;;;;;;;3.58;0.85;;;;;;;;;;5016681;28;20080;-73
2023/03/27 09:13:46;;;;;;;6.05;0.70;;;;;;;;;;5014748;28;20256;-73
2023/03/27 09:16:12;;;;;;;6.90;0.93;;;;;;;;;;5015594;28;20079;-75
2023/03/27 09:18:40;;;;;;;3.95;0.80;;;;;;;;;;5018844;28;20052;-75
2023/03/27 09:21:26;;;;;;;6.05;1.00;;;;;;;;;;5014413;28;20175;-72
2023/03/27 09:23:54;;;;;;;7.97;1.33;;;;;;;;;;5013052;28;20044;-74
2023/03/27 09:26:22;;;;;;;11.48;1.50;;;;;;;;;;5017466;28;20041;-74
2023/03/27 09:28:51;;;;;;;7.97;2.20;;;;;;;;;;5015911;28;20050;-75
2023/03/27 09:31:23;;;;;;;9.65;1.80;;;;;;;;;;5013044;28;20060;-74
2023/03/27 09:33:50;;;;;;;7.05;1.25;;;;;;;;;;5014663;28;20052;-75
2023/03/27 09:36:16;;;;;;;9.25;1.30;;;;;;;;;;5013980;28;20045;-75
2023/03/27 09:38:49;;;;;;;3.65;0.90;;;;;;;;;;5010258;28;21621;-75
2023/03/27 09:41:17;;;;;;;5.55;0.95;;;;;;;;;;5017726;28;20103;-75
2023/03/27 09:44:02;;;;;;;5.88;1.60;;;;;;;;;;5019101;28;20037;-76
2023/03/27 09:46:28;;;;;;;4.50;0.90;;;;;;;;;;5018605;28;20045;-76
2023/03/27 09:48:54;;;;;;;9.85;1.40;;;;;;;;;;5015042;28;20786;-75
2023/03/27 09:51:37;;;;;;;7.18;0.95;;;;;;;;;;5015227;28;21763;-76
2023/03/27 09:54:03;;;;;;;7.18;1.00;;;;;;;;;;5017417;28;20064;-75
2023/03/27 09:56:30;;;;;;;4.95;1.00;;;;;;;;;;5011968;28;20072;-75
2023/03/27 09:58:57;;;;;;;7.05;1.33;;;;;;;;;;5014000;28;20049;-75
2023/03/27 10:01:26;;;;;;;7.85;1.65;;;;;;;;;;5016265;28;20049;-75
2023/03/27 10:03:54;;;;;;;9.30;1.05;;;;;;;;;;5015183;28;20682;-75
2023/03/27 10:06:25;;;;;;;7.70;1.55;;;;;;;;;;5015396;28;21766;-75
2023/03/27 10:08:52;;;;;;;6.35;1.15;;;;;;;;;;5012095;28;20148;-76
2023/03/27 10:11:24;;;;;;;13.85;1.35;;;;;;;;;;5014231;28;20144;-76
2023/03/27 10:13:51;;;;;;;8.98;1.10;;;;;;;;;;5015988;28;20048;-76
2023/03/27 10:16:19;;;;;;;5.10;0.82;;;;;;;;;;5013647;28;20528;-76
2023/03/27 10:18:47;;;;;;;7.53;1.05;;;;;;;;;;5015322;28;20103;-75
2023/03/27 10:21:19;;;;;;;7.63;0.90;;;;;;;;;;5016285;28;20041;-76
2023/03/27 10:23:49;;;;;;;9.52;1.60;;;;;;;;;;5014362;28;20046;-76
2023/03/27 10:26:19;;;;;;;8.85;1.83;;;;;;;;;;5013297;28;20744;-76
2023/03/27 10:28:47;;;;;;;9.73;1.15;;;;;;;;;;5011820;28;20091;-75
2023/03/27 10:31:29;;;;;;;5.63;1.25;;;;;;;;;;5013925;28;20949;-76
2023/03/27 10:33:56;;;;;;;5.53;0.98;;;;;;;;;;5011431;28;20053;-78
2023/03/27 10:36:23;;;;;;;4.38;1.00;;;;;;;;;;5008828;28;21601;-76
2023/03/27 10:38:53;;;;;;;7.57;1.20;;;;;;;;;;5012894;28;20056;-77
2023/03/27 10:41:19;;;;;;;8.63;1.75;;;;;;;;;;5015716;28;20557;-77
2023/03/27 10:43:47;;;;;;;6.18;1.08;;;;;;;;;;5013794;28;20819;-77
2023/03/27 10:46:19;;;;;;;7.13;0.90;;;;;;;;;;4993644;28;20048;-77
2023/03/27 10:48:46;;;;;;;6.97;1.08;;;;;;;;;;5015143;28;20086;-77
2023/03/27 10:51:21;;;;;;;4.88;1.30;;;;;;;;;;5014968;28;20115;-76
2023/03/27 10:53:51;;;;;;;8.15;1.08;;;;;;;;;;5013726;28;21090;-76
2023/03/27 10:56:31;;;;;;;8.48;1.50;;;;;;;;;;5012244;28;20037;-77
2023/03/27 10:59:11;;;;;;;4.25;0.93;;;;;;;;;;5010042;28;20080;-78
2023/03/27 11:01:42;;;;;;;8.18;1.23;;;;;;;;;;5009296;28;20425;-74
2023/03/27 11:04:13;;;;;;;10.30;1.35;;;;;;;;;;5009606;28;20049;-72
2023/03/27 11:06:41;;;;;;;10.07;1.30;;;;;;;;;;5014262;28;20786;-72
2023/03/27 11:09:22;;;;;;;2.85;1.38;;;;;;;;;;5013110;28;20049;-72
2023/03/27 11:11:49;;;;;;;6.85;1.35;;;;;;;;;;4997431;28;20060;-72
2023/03/27 11:14:24;;;;;;;5.28;0.85;;;;;;;;;;5015577;28;20053;-71
2023/03/27 11:16:54;;;;;;;6.35;1.25;;;;;;;;;;4999842;28;20053;-72
2023/03/27 11:19:24;;;;;;;10.05;1.55;;;;;;;;;;5010667;28;20731;-72
2023/03/27 11:21:56;;;;;;;6.40;1.25;;;;;;;;;;5009661;28;20324;-72
2023/03/27 11:24:46;;;;;;;7.90;1.15;;;;;;;;;;5013100;28;20123;-73
2023/03/27 11:27:19;;;;;;;5.53;1.05;;;;;;;;;;5010239;28;20052;-73
2023/03/27 11:29:57;;;;;;;4.77;0.87;;;;;;;;;;5009234;28;20052;-73
2023/03/27 11:32:47;;;;;;;4.72;1.05;;;;;;;;;;5008082;28;20304;-73
2023/03/27 11:35:16;;;;;;;11.57;1.73;;;;;;;;;;5013053;28;20072;-73
2023/03/27 11:37:56;;;;;;;9.02;1.20;;;;;;;;;;5016236;28;22058;-73
2023/03/27 11:40:29;;;;;;;15.45;1.75;;;;;;;;;;5014505;28;20128;-73
2023/03/27 11:42:55;;;;;;;7.85;1.10;;;;;;;;;;5013035;28;20052;-72
2023/03/27 11:45:26;;;;;;;8.65;1.42;;;;;;;;;;5011220;28;20399;-72
2023/03/27 11:48:21;;;;;;;8.35;1.45;;;;;;;;;;5010596;28;20670;-72
2023/03/27 11:51:08;;;;;;;11.57;2.03;;;;;;;;;;5009658;28;20061;-72
2023/03/27 11:53:46;;;;;;;6.13;1.70;;;;;;;;;;5013590;28;20070;-72
2023/03/27 11:56:31;;;;;;;4.07;1.48;;;;;;;;;;5009454;28;20049;-72
2023/03/27 11:59:07;;;;;;;6.28;1.38;;;;;;;;;;5009994;28;20389;-72
2023/03/27 12:01:39;;;;;;;5.65;1.30;;;;;;;;;;5009624;28;20171;-72
2023/03/27 12:04:10;;;;;;;7.72;1.23;;;;;;;;;;5007710;28;20100;-72
2023/03/27 12:06:39;;;;;;;7.20;1.13;;;;;;;;;;5009459;28;20046;-72
2023/03/27 12:09:09;;;;;;;11.95;1.30;;;;;;;;;;5011169;28;20053;-72
2023/03/27 12:11:38;;;;;;;9.75;1.35;;;;;;;;;;5011896;28;20051;-72
2023/03/27 12:14:26;;;;;;;9.00;1.50;;;;;;;;;;5011547;28;20041;-78
2023/03/27 12:17:01;;;;;;;8.77;1.35;;;;;;;;;;5008675;28;20244;-79
2023/03/27 12:19:30;;;;;;;3.60;1.00;;;;;;;;;;5008992;28;20199;-79
2023/03/27 12:22:12;;;;;;;5.45;1.50;;;;;;;;;;5025645;28;20041;-80
2023/03/27 12:24:38;;;;;;;10.93;1.48;;;;;;;;;;5011673;28;20045;-80
2023/03/27 12:27:11;;;;;;;8.68;1.20;;;;;;;;;;5024760;28;20159;-80
2023/03/27 12:29:40;;;;;;;6.10;1.10;;;;;;;;;;4997484;28;20044;-80
2023/03/27 12:32:13;;;;;;;9.02;0.93;;;;;;;;;;5003425;28;20701;-80
2023/03/27 12:34:41;;;;;;;3.78;0.82;;;;;;;;;;5018109;28;20132;-78
2023/03/27 12:37:11;;;;;;;9.60;1.48;;;;;;;;;;5029775;28;20052;-80
2023/03/27 12:39:44;;;;;;;7.25;1.40;;;;;;;;;;5015393;28;20056;-80
2023/03/27 12:42:14;;;;;;;7.43;1.13;;;;;;;;;;5016866;28;20121;-78
2023/03/27 12:45:09;;;;;;;7.50;1.77;;;;;;;;;;5014064;28;20078;-79
2023/03/27 12:47:35;;;;;;;8.80;1.40;;;;;;;;;;5012328;28;20469;-79
2023/03/27 12:50:10;;;;;;;6.10;1.30;;;;;;;;;;4999437;28;20128;-79
2023/03/27 12:52:38;;;;;;;7.55;1.40;;;;;;;;;;5015403;28;20069;-80
2023/03/27 12:55:04;;;;;;;8.43;1.20;;;;;;;;;;5016311;28;20053;-79
2023/03/27 12:57:30;;;;;;;7.25;1.27;;;;;;;;;;5015466;28;20492;-79
2023/03/27 12:59:57;;;;;;;12.00;1.55;;;;;;;;;;4999733;28;20045;-79
2023/03/27 13:02:38;;;;;;;4.93;1.65;;;;;;;;;;5014426;28;20091;-79
2023/03/27 13:05:13;;;;;;;8.73;1.30;;;;;;;;;;5014705;28;20049;-80
2023/03/27 13:07:50;;;;;;;6.60;1.52;;;;;;;;;;5018844;28;20053;-80
2023/03/27 13:10:25;;;;;;;7.15;1.42;;;;;;;;;;5022217;28;20064;-81
2023/03/27 13:13:10;;;;;;;10.30;1.48;;;;;;;;;;5021987;28;20049;-81
2023/03/27 13:15:55;;;;;;;10.07;1.92;;;;;;;;;;5021749;28;20052;-79
2023/03/27 13:18:28;;;;;;;15.60;1.70;;;;;;;;;;5004315;28;20041;-79
2023/03/27 13:21:09;;;;;;;11.45;1.98;;;;;;;;;;5018558;28;20100;-80
2023/03/27 13:23:35;;;;;;;9.50;1.80;;;;;;;;;;5020794;28;20041;-79
2023/03/27 13:26:02;;;;;;;7.53;1.40;;;;;;;;;;5005308;28;20132;-79
2023/03/27 13:28:31;;;;;;;8.80;1.48;;;;;;;;;;5022201;28;20363;-73
2023/03/27 13:30:58;;;;;;;9.65;1.23;;;;;;;;;;5017938;28;20685;-73
2023/03/27 13:33:24;;;;;;;8.00;1.67;;;;;;;;;;5001676;28;20052;-73
2023/03/27 13:35:50;;;;;;;8.77;1.27;;;;;;;;;;5013827;28;20049;-73
2023/03/27 13:38:17;;;;;;;9.35;1.13;;;;;;;;;;5015064;28;20111;-74
2023/03/27 13:40:44;;;;;;;4.40;0.90;;;;;;;;;;5016671;28;20045;-72
2023/03/27 13:43:22;;;;;;;7.35;1.25;;;;;;;;;;5016999;28;20682;-72
2023/03/27 13:45:52;;;;;;;3.97;1.00;;;;;;;;;;5015676;28;20457;-72
2023/03/27 13:48:24;;;;;;;3.42;0.90;;;;;;;;;;5018768;28;20581;-72
2023/03/27 13:51:08;;;;;;;3.35;0.93;;;;;;;;;;5018187;28;20049;-73
2023/03/27 13:53:52;;;;;;;5.40;0.93;;;;;;;;;;5019304;28;20118;-72
2023/03/27 13:56:28;;;;;;;7.70;1.08;;;;;;;;;;5020844;28;20052;-72
2023/03/27 13:59:00;;;;;;;11.00;1.38;;;;;;;;;;5019563;28;20607;-72
2023/03/27 14:01:50;;;;;;;10.98;1.70;;;;;;;;;;5014437;28;20115;-73
2023/03/27 14:04:23;;;;;;;5.97;1.42;;;;;;;;;;4995107;28;20133;-73
2023/03/27 14:07:01;;;;;;;6.82;1.38;;;;;;;;;;5012865;28;20055;-72
2023/03/27 14:09:47;;;;;;;9.00;1.40;;;;;;;;;;5013219;28;20057;-72
2023/03/27 14:12:25;;;;;;;6.53;1.02;;;;;;;;;;5014955;28;20045;-73
2023/03/27 14:15:06;;;;;;;8.35;1.10;;;;;;;;;;5014444;28;20100;-73
2023/03/27 14:17:38;;;;;;;5.85;0.98;;;;;;;;;;4992290;28;20051;-72
2023/03/27 14:20:11;;;;;;;11.93;1.50;;;;;;;;;;5016636;28;20049;-71
2023/03/27 14:22:48;;;;;;;4.35;1.42;;;;;;;;;;5008305;28;20893;-72
2023/03/27 14:25:16;;;;;;;11.45;1.67;;;;;;;;;;5014909;28;20059;-72
2023/03/27 14:27:42;;;;;;;7.70;1.20;;;;;;;;;;5012913;28;20045;-72
2023/03/27 14:30:13;;;;;;;7.03;1.45;;;;;;;;;;4999001;28;20049;-72
2023/03/27 14:32:39;;;;;;;7.03;1.23;;;;;;;;;;5011817;28;20053;-72
2023/03/27 14:35:09;;;;;;;10.70;2.60;;;;;;;;;;5020982;28;20036;-72
2023/03/27 14:37:37;;;;;;;13.43;1.60;;;;;;;;;;5002701;28;20067;-72
2023/03/27 14:40:17;;;;;;;11.48;1.45;;;;;;;;;;5008648;28;20848;-71
2023/03/27 14:42:48;;;;;;;8.00;1.27;;;;;;;;;;5010662;28;20055;-73
2023/03/27 14:45:20;;;;;;;7.22;1.30;;;;;;;;;;5011960;28;20283;-72
2023/03/27 14:47:48;;;;;;;6.57;1.25;;;;;;;;;;5008593;28;20045;-72
2023/03/27 14:50:14;;;;;;;8.20;1.88;;;;;;;;;;5011339;28;20044;-72
2023/03/27 14:52:41;;;;;;;10.05;1.85;;;;;;;;;;5009158;28;20112;-72
2023/03/27 14:55:08;;;;;;;7.38;1.23;;;;;;;;;;5010817;28;20183;-72
2023/03/27 14:57:34;;;;;;;9.60;1.75;;;;;;;;;;5009827;28;20136;-72